Time;durP1;ratioP1;P1;durP2;ratioP2;P2;SDS_P1;SDS_P2;PMS_P1;PMS_P2;Temp;Humidity;BMP_temperature;BMP_pressure;BME280_temperature;BME280_humidity;BME280_pressure;Samples;Min_cycle;Max_cycle;Signal;HPM_P1;HPM_P2
2023/08/07 02:17:22;;;;;;;;;0.33;0.33;;;;;25.92;38.77;100244.09;146701;566;45012;-75
2023/08/07 02:20:19;;;;;;;;;0.00;0.00;;;;;25.98;38.51;100250.19;146620;583;46023;-79
2023/08/07 02:23:34;;;;;;;;;0.00;0.00;;;;;26.10;38.28;100253.50;146624;624;46010;-80
2023/08/07 02:26:38;;;;;;;;;0.00;0.00;;;;;26.24;37.66;100254.09;146618;564;47012;-76
2023/08/07 02:29:39;;;;;;;;;0.00;0.00;;;;;26.37;37.69;100260.03;146624;569;46010;-77
2023/08/07 02:32:46;;;;;;;;;0.00;0.00;;;;;26.46;37.31;100260.72;146617;569;46016;-78
2023/08/07 02:35:43;;;;;;;;;0.00;0.00;;;;;26.53;37.04;100264.13;146620;593;47021;-78
2023/08/07 02:38:58;;;;;;;;;1.00;0.00;;;;;26.59;36.60;100261.34;146616;570;46016;-77
2023/08/07 02:42:00;;;;;;;;;0.00;0.00;;;;;26.63;37.09;100254.19;146623;631;46021;-73
2023/08/07 02:45:02;;;;;;;;;0.00;0.00;;;;;26.66;36.85;100262.09;146622;569;46012;-72
2023/08/07 02:48:10;;;;;;;;;0.00;0.00;;;;;26.66;37.01;100262.94;146625;658;46010;-72
2023/08/07 02:51:17;;;;;;;;;0.00;0.00;;;;;26.71;37.19;100265.53;146620;728;46016;-73
2023/08/07 02:54:17;;;;;;;;;0.00;0.00;;;;;26.76;36.59;100268.06;146625;621;46010;-72
2023/08/07 02:57:33;;;;;;;;;;;;;;;;;;;;;
2023/08/07 03:00:29;;;;;;;;;0.00;0.00;;;;;26.81;36.43;100275.03;146623;708;46020;-73
2023/08/07 03:03:26;;;;;;;;;0.00;0.00;;;;;26.88;36.30;100273.97;146616;598;46013;-72
2023/08/07 03:06:42;;;;;;;;;0.00;0.00;;;;;26.95;36.97;100274.75;146623;691;46020;-79
2023/08/07 03:09:59;;;;;;;;;1.00;0.00;;;;;27.02;36.97;100281.66;146619;641;46012;-77
2023/08/07 03:13:14;;;;;;;;;0.00;0.00;;;;;27.04;35.91;100282.50;146620;702;47020;-77
2023/08/07 03:16:30;;;;;;;;;0.00;0.00;;;;;27.06;35.99;100282.47;146619;579;46014;-77
2023/08/07 03:19:25;;;;;;;;;0.00;0.00;;;;;27.05;35.34;100281.59;146622;608;46010;-77
2023/08/07 03:22:27;;;;;;;;;0.00;0.00;;;;;27.02;36.13;100286.97;146619;581;46012;-81
2023/08/07 03:25:41;;;;;;;;;;;;;;;;;;;;;
2023/08/07 03:28:58;;;;;;;;;0.00;0.00;;;;;27.00;36.75;100291.47;146617;628;46017;-79
2023/08/07 03:31:51;;;;;;;;;0.00;0.00;;;;;27.01;36.36;100294.97;146623;587;46010;-80
2023/08/07 03:34:45;;;;;;;;;0.00;0.00;;;;;27.01;35.70;100301.22;146616;569;46017;-80
2023/08/07 03:37:44;;;;;;;;;0.00;0.00;;;;;27.02;35.06;100302.06;146622;570;46014;-81
2023/08/07 03:40:39;;;;;;;;;0.00;0.00;;;;;26.96;35.37;100303.09;146617;573;48012;-79
2023/08/07 03:43:36;;;;;;;;;0.00;0.00;;;;;26.94;35.83;100307.56;146620;756;46021;-80
2023/08/07 03:46:37;;;;;;;;;0.00;0.00;;;;;26.89;35.27;100306.81;146616;582;46030;-81
2023/08/07 03:49:42;;;;;;;;;0.00;0.00;;;;;26.10;36.39;100182.63;146623;581;46021;-80
2023/08/07 03:52:46;;;;;;;;;0.00;0.00;;;;;26.82;35.67;100316.72;146619;686;46016;-74
2023/08/07 03:55:42;;;;;;;;;0.00;0.00;;;;;26.80;35.95;100315.00;146620;705;47010;-76
2023/08/07 03:58:50;;;;;;;;;;;;;;;;;;;;;
2023/08/07 04:02:00;;;;;;;;;0.00;0.00;;;;;26.58;35.76;100286.19;146622;662;46020;-79
2023/08/07 04:04:56;;;;;;;;;0.00;0.00;;;;;26.65;35.75;100316.19;146615;592;46016;-77
2023/08/07 04:07:57;;;;;;;;;0.00;0.00;;;;;26.61;36.36;100315.37;146621;650;46020;-75
2023/08/07 04:11:17;;;;;;;;;0.00;0.00;;;;;26.57;36.36;100308.34;146616;564;46013;-78
2023/08/07 04:14:25;;;;;;;;;0.00;0.00;;;;;26.55;36.38;100317.31;146620;598;46020;-79
2023/08/07 04:17:35;;;;;;;;;0.00;0.00;;;;;26.56;37.18;100313.72;146622;614;45916;-81
2023/08/07 04:20:43;;;;;;;;;;;;;;;;;;;;;
2023/08/07 04:23:43;;;;;;;;;0.00;0.00;;;;;26.61;36.33;100311.84;146621;594;46016;-76
2023/08/07 04:26:59;;;;;;;;;;;;;;;;;;;;;
2023/08/07 04:30:28;;;;;;;;;0.00;0.00;;;;;26.56;37.80;100324.38;146619;629;46014;-76
2023/08/07 04:33:37;;;;;;;;;0.00;0.00;;;;;26.59;38.17;100322.50;146625;599;46011;-77
2023/08/07 04:36:42;;;;;;;;;0.00;0.00;;;;;26.64;37.31;100315.31;146621;594;47012;-78
2023/08/07 04:39:57;;;;;;;;;1.00;0.67;;;;;26.75;37.42;100322.19;146616;599;47914;-76
2023/08/07 04:42:56;;;;;;;;;0.00;0.00;;;;;26.87;37.34;100317.47;146618;637;46014;-76
2023/08/07 04:45:54;;;;;;;;;0.33;0.33;;;;;27.00;37.39;100319.84;146621;590;46020;-83
2023/08/07 04:49:01;;;;;;;;;0.00;0.00;;;;;27.12;36.89;100325.75;146620;646;46013;-80
2023/08/07 04:51:55;;;;;;;;;0.00;0.00;;;;;27.25;36.62;100330.84;146623;569;46020;-81
2023/08/07 04:55:14;;;;;;;;;0.00;0.00;;;;;27.37;36.71;100326.09;146621;596;46012;-78
2023/08/07 04:58:15;;;;;;;;;1.00;1.00;;;;;27.49;36.29;100324.91;146620;594;47010;-74
2023/08/07 05:01:19;;;;;;;;;1.00;1.00;;;;;27.63;36.37;100328.13;146620;654;46016;-75
2023/08/07 05:04:16;;;;;;;;;2.00;2.00;;;;;27.76;36.33;100327.81;146621;590;46020;-77
2023/08/07 20:44:03;;;;;;;;;1.33;1.33;;;;;26.44;37.12;100259.84;146704;560;47012;-75
2023/08/07 20:47:11;;;;;;;;;2.00;1.00;;;;;26.42;36.83;100236.91;146618;570;46943;-76
2023/08/07 20:50:18;;;;;;;;;2.00;2.00;;;;;26.30;36.73;100208.78;146615;592;47010;-74
2023/08/07 20:53:18;;;;;;;;;1.00;1.00;;;;;26.60;36.28;100247.13;146611;595;47012;-76
2023/08/07 20:56:16;;;;;;;;;0.33;0.33;;;;;26.68;36.03;100245.19;146619;630;46010;-76
2023/08/07 20:59:11;;;;;;;;;0.33;0.33;;;;;26.77;35.63;100259.19;146610;626;46016;-76
2023/08/07 21:02:13;;;;;;;;;0.00;0.00;;;;;26.83;36.18;100264.37;146621;598;46020;-74
2023/08/07 21:05:31;;;;;;;;;0.00;0.00;;;;;26.94;35.52;100249.03;146608;708;47012;-76
2023/08/07 21:08:23;;;;;;;;;1.00;1.00;;;;;27.03;35.72;100251.47;146618;577;46010;-76
2023/08/07 21:11:35;;;;;;;;;1.00;1.00;;;;;27.09;36.03;100248.66;146612;575;46016;-76
2023/08/07 21:14:45;;;;;;;;;0.33;0.33;;;;;27.11;35.49;100249.50;146613;674;46020;-77
2023/08/07 21:17:38;;;;;;;;;1.00;1.00;;;;;27.13;35.34;100245.03;146611;658;46012;-80
2023/08/07 21:20:32;;;;;;;;;1.00;1.00;;;;;27.14;35.26;100253.91;146615;570;46021;-74
2023/08/07 21:23:28;;;;;;;;;1.00;1.00;;;;;27.13;35.59;100250.34;146612;624;46915;-76
2023/08/07 21:26:24;;;;;;;;;0.00;0.00;;;;;27.14;35.54;100245.94;146616;615;46021;-77
2023/08/07 21:29:43;;;;;;;;;1.00;1.00;;;;;27.07;35.00;100236.31;146618;590;47012;-76
2023/08/07 21:32:50;;;;;;;;;1.00;0.00;;;;;27.03;35.20;100239.97;146617;595;47010;-78
2023/08/07 21:35:50;;;;;;;;;0.00;0.00;;;;;26.95;34.99;100243.69;146611;594;46037;-79
2023/08/07 21:38:57;;;;;;;;;1.67;1.67;;;;;26.87;36.02;100235.00;146615;599;47010;-74
2023/08/07 21:42:17;;;;;;;;;2.33;1.33;;;;;26.82;36.78;100236.00;146609;593;46017;-79
2023/08/07 21:45:26;;;;;;;;;1.00;1.00;;;;;26.79;37.51;100241.41;146616;648;46020;-75
2023/08/07 21:48:25;;;;;;;;;0.00;0.00;;;;;26.83;36.81;100243.09;146610;572;47013;-74
2023/08/07 21:51:34;;;;;;;;;0.33;0.00;;;;;26.86;36.60;100246.56;146617;568;47010;-73
2023/08/07 21:54:38;;;;;;;;;1.00;0.33;;;;;26.84;36.81;100244.84;146611;714;47012;-74
2023/08/07 21:57:37;;;;;;;;;0.00;0.00;;;;;26.82;36.41;100241.34;146617;584;46020;-73
2023/08/07 22:00:41;;;;;;;;;0.00;0.00;;;;;26.23;36.50;100138.06;146611;593;46012;-74
2023/08/07 22:03:48;;;;;;;;;1.00;0.00;;;;;26.84;36.69;100231.53;146614;585;46021;-79
2023/08/07 22:07:04;;;;;;;;;0.00;0.00;;;;;26.81;35.74;100234.28;146613;658;46016;-79
2023/08/07 22:09:58;;;;;;;;;0.00;0.00;;;;;26.77;36.09;100235.25;146619;631;47010;-79
2023/08/07 22:13:19;;;;;;;;;0.00;0.00;;;;;26.76;36.15;100241.47;146611;575;46016;-77
2023/08/07 22:16:15;;;;;;;;;0.00;0.00;;;;;26.80;36.16;100248.50;146615;587;47020;-76
2023/08/07 22:19:16;;;;;;;;;0.00;0.00;;;;;26.86;36.60;100249.22;146611;609;47013;-78
2023/08/07 22:22:21;;;;;;;;;;;;;;;;;;;;;
2023/08/07 22:25:22;;;;;;;;;1.33;0.67;;;;;26.95;37.23;100238.38;146612;624;47012;-79
2023/08/07 22:28:36;;;;;;;;;0.00;0.00;;;;;26.97;37.25;100232.12;146618;570;47010;-78
2023/08/07 22:31:40;;;;;;;;;0.00;0.00;;;;;26.95;37.42;100229.50;146611;571;48012;-79
2023/08/07 22:34:37;;;;;;;;;0.00;0.00;;;;;26.94;37.15;100235.72;146616;604;46038;-76
2023/08/07 22:37:53;;;;;;;;;0.00;0.00;;;;;26.98;37.22;100240.09;146614;563;46016;-83
2023/08/07 22:40:49;;;;;;;;;0.00;0.00;;;;;27.02;37.01;100236.44;146617;606;46021;-79
2023/08/07 22:43:55;;;;;;;;;0.00;0.00;;;;;27.00;37.63;100232.91;146608;585;48012;-79
2023/08/07 22:46:51;;;;;;;;;0.00;0.00;;;;;26.95;36.84;100233.03;146617;621;46029;-78
2023/08/07 22:49:51;;;;;;;;;0.33;0.33;;;;;26.93;37.01;100237.50;146609;594;47016;-84
2023/08/07 22:52:43;;;;;;;;;0.67;0.67;;;;;26.88;37.08;100236.72;146614;652;47020;-83
2023/08/07 22:55:55;;;;;;;;;;;;;;;;;;;;;
2023/08/07 22:58:51;;;;;;;;;1.00;0.00;;;;;26.65;37.79;100237.28;146615;616;47008;-85
2023/08/07 23:01:55;;;;;;;;;1.00;0.00;;;;;26.62;37.70;100226.72;146610;619;46013;-81
2023/08/07 23:04:58;;;;;;;;;2.00;0.67;;;;;26.60;37.94;100232.97;146615;593;47010;-81
2023/08/07 23:08:07;;;;;;;;;0.00;0.00;;;;;26.55;37.44;100232.22;146613;665;47012;-84
2023/08/07 23:11:04;;;;;;;;;1.00;0.33;;;;;26.46;37.05;100227.94;146615;595;46021;-81
2023/08/07 23:14:01;;;;;;;;;0.00;0.00;;;;;26.32;37.60;100217.59;146612;592;47012;-82
2023/08/07 23:17:23;;;;;;;;;0.00;0.00;;;;;25.98;37.86;100164.28;146615;674;46020;-81
2023/08/07 23:20:29;;;;;;;;;0.00;0.00;;;;;26.19;38.04;100219.63;146613;563;46035;-82
2023/08/07 23:23:21;;;;;;;;;0.33;0.00;;;;;26.12;38.46;100212.72;146617;569;46020;-81
2023/08/07 23:26:30;;;;;;;;;0.00;0.00;;;;;26.03;38.28;100203.13;146611;655;47012;-82
2023/08/07 23:29:44;;;;;;;;;0.00;0.00;;;;;26.03;38.31;100207.56;146615;571;46020;-80
2023/08/07 23:32:39;;;;;;;;;0.00;0.00;;;;;25.98;37.67;100198.81;146612;586;47013;-80
2023/08/07 23:35:51;;;;;;;;;1.00;0.00;;;;;25.98;37.35;100201.47;146618;600;46010;-80
2023/08/07 23:38:52;;;;;;;;;0.67;0.67;;;;;25.96;37.14;100198.88;146611;575;46015;-79
2023/08/07 23:41:59;;;;;;;;;0.00;0.00;;;;;25.96;37.19;100200.66;146613;590;46021;-78
2023/08/07 23:44:59;;;;;;;;;0.00;0.00;;;;;26.03;37.13;100207.56;146611;665;47012;-82
2023/08/07 23:47:57;;;;;;;;;0.00;0.00;;;;;26.13;37.32;100201.16;146619;586;46010;-81
2023/08/07 23:50:49;;;;;;;;;0.00;0.00;;;;;26.29;36.55;100208.81;146613;655;46016;-80
2023/08/07 23:53:42;;;;;;;;;0.00;0.00;;;;;26.35;37.00;100209.53;146616;645;46020;-77
2023/08/07 23:56:34;;;;;;;;;1.67;0.00;;;;;26.39;36.83;100213.91;146612;642;46017;-81
2023/08/07 23:59:29;;;;;;;;;0.00;0.00;;;;;26.40;36.75;100218.31;146614;663;47014;-80
